Time;durP1;ratioP1;P1;durP2;ratioP2;P2;SDS_P1;SDS_P2;PMS_P1;PMS_P2;Temp;Humidity;BMP_temperature;BMP_pressure;BME280_temperature;BME280_humidity;BME280_pressure;Samples;Min_cycle;Max_cycle;Signal;HPM_P1;HPM_P2
2022/05/02 00:00:45;;;;;;;24.47;14.60;;;10.50;99.90;;;;;;5015532;28;20223;-75
2022/05/02 00:03:12;;;;;;;26.83;14.50;;;10.50;99.90;;;;;;5015291;28;20301;-76
2022/05/02 00:05:40;;;;;;;22.43;13.63;;;10.50;99.90;;;;;;5015625;28;20560;-75
2022/05/02 00:08:07;;;;;;;24.47;13.83;;;10.40;99.90;;;;;;5015355;28;20195;-76
2022/05/02 00:10:34;;;;;;;26.47;14.17;;;10.40;99.90;;;;;;5015518;28;20200;-75
2022/05/02 00:13:01;;;;;;;24.10;14.27;;;10.30;99.90;;;;;;5015473;28;20195;-76
2022/05/02 00:15:29;;;;;;;24.37;14.20;;;10.20;99.90;;;;;;5015234;28;20752;-76
2022/05/02 00:17:56;;;;;;;27.43;14.73;;;10.20;99.90;;;;;;5015281;28;20207;-77
2022/05/02 00:20:43;;;;;;;28.30;14.93;;;10.10;99.90;;;;;;5015661;28;20231;-76
2022/05/02 00:23:11;;;;;;;24.80;14.23;;;10.10;99.90;;;;;;5015247;28;20230;-75
2022/05/02 00:25:38;;;;;;;24.70;13.90;;;10.10;99.90;;;;;;5032641;28;20198;-75
2022/05/02 00:28:05;;;;;;;23.13;13.27;;;10.00;99.90;;;;;;5015299;28;20291;-76
2022/05/02 00:30:32;;;;;;;30.00;14.20;;;9.90;99.90;;;;;;5015271;28;20198;-76
2022/05/02 00:32:59;;;;;;;25.90;14.00;;;9.90;99.90;;;;;;5034363;28;20237;-75
2022/05/02 00:35:26;;;;;;;26.40;13.40;;;9.90;99.90;;;;;;5018872;28;20250;-75
2022/05/02 00:37:53;;;;;;;22.73;13.60;;;9.90;99.90;;;;;;5019352;28;20227;-75
2022/05/02 00:40:21;;;;;;;24.50;13.30;;;9.80;99.90;;;;;;5018583;28;20290;-74
2022/05/02 00:42:48;;;;;;;25.57;13.67;;;9.80;99.90;;;;;;5018852;28;20230;-75
2022/05/02 00:45:16;;;;;;;21.20;12.97;;;9.80;99.90;;;;;;5018473;28;20207;-75
2022/05/02 00:47:55;;;;;;;24.23;14.07;;;9.70;99.90;;;;;;5018715;28;20249;-75
2022/05/02 00:50:34;;;;;;;25.33;13.97;;;9.70;99.90;;;;;;5018653;28;20207;-74
2022/05/02 00:53:08;;;;;;;23.77;14.33;;;9.60;99.90;;;;;;5018873;28;20207;-75
2022/05/02 00:55:35;;;;;;;26.17;14.53;;;9.60;99.90;;;;;;5036007;28;20594;-72
2022/05/02 00:58:03;;;;;;;25.27;14.30;;;9.60;99.90;;;;;;5018314;28;20266;-72
2022/05/02 01:00:32;;;;;;;23.83;14.53;;;9.50;99.90;;;;;;5018306;28;20203;-72
2022/05/02 01:02:59;;;;;;;25.60;15.20;;;9.50;99.90;;;;;;5035640;28;20659;-73
2022/05/02 01:05:27;;;;;;;26.17;14.57;;;9.50;99.90;;;;;;5010110;28;20254;-72
2022/05/02 01:07:54;;;;;;;25.00;14.67;;;9.50;99.90;;;;;;5018151;28;20298;-73
2022/05/02 01:10:22;;;;;;;26.33;13.73;;;9.40;99.90;;;;;;5036068;28;20195;-73
2022/05/02 01:12:49;;;;;;;23.43;13.93;;;9.30;99.90;;;;;;5018408;28;20294;-74
2022/05/02 01:15:16;;;;;;;28.60;14.20;;;9.30;99.90;;;;;;5018043;28;20254;-72
2022/05/02 01:17:44;;;;;;;26.00;13.93;;;9.30;99.90;;;;;;5018142;28;20294;-72
2022/05/02 01:20:15;;;;;;;23.07;13.03;;;9.30;99.90;;;;;;5017992;28;20210;-72
2022/05/02 01:22:42;;;;;;;24.33;12.87;;;9.20;99.90;;;;;;5018244;28;20215;-72
2022/05/02 01:25:11;;;;;;;23.37;12.80;;;9.20;99.90;;;;;;5018002;28;20203;-72
2022/05/02 01:27:38;;;;;;;21.07;13.20;;;9.20;99.90;;;;;;5017905;28;20253;-72
2022/05/02 01:30:06;;;;;;;21.83;13.20;;;9.20;99.90;;;;;;5035641;28;20227;-74
2022/05/02 01:32:32;;;;;;;24.07;13.13;;;9.10;99.90;;;;;;5017593;28;20191;-74
2022/05/02 01:34:59;;;;;;;21.93;12.93;;;9.00;99.90;;;;;;5035339;28;20604;-74
2022/05/02 01:37:26;;;;;;;26.67;13.07;;;9.10;99.90;;;;;;5035590;28;20242;-74
2022/05/02 01:39:53;;;;;;;22.03;12.50;;;9.10;99.90;;;;;;5017667;28;20204;-74
2022/05/02 01:42:20;;;;;;;20.80;12.40;;;9.10;99.90;;;;;;5018040;28;20213;-75
2022/05/02 01:44:47;;;;;;;22.03;12.17;;;9.10;99.90;;;;;;5016247;28;20227;-74
2022/05/02 01:47:14;;;;;;;22.60;12.57;;;9.00;99.90;;;;;;5017608;28;20200;-75
2022/05/02 01:49:41;;;;;;;20.70;12.30;;;9.00;99.90;;;;;;5035274;28;20618;-75
2022/05/02 01:52:08;;;;;;;22.27;12.83;;;9.00;99.90;;;;;;5035226;28;20270;-75
2022/05/02 01:54:35;;;;;;;21.37;12.40;;;9.00;99.90;;;;;;5017184;28;20195;-75
2022/05/02 01:57:02;;;;;;;19.53;11.80;;;9.00;99.90;;;;;;5017295;28;20311;-74
2022/05/02 01:59:29;;;;;;;21.23;12.60;;;8.90;99.90;;;;;;5035323;28;20203;-75
2022/05/02 02:01:56;;;;;;;23.17;12.87;;;8.90;99.90;;;;;;5034994;28;20785;-72
2022/05/02 02:07:09;;;;;;;22.63;12.70;;;8.90;99.90;;;;;;5017031;28;20283;-72
2022/05/02 02:09:36;;;;;;;23.10;13.27;;;8.90;99.90;;;;;;5016912;28;20207;-72
2022/05/02 02:12:03;;;;;;;19.27;12.13;;;8.80;99.90;;;;;;5016980;28;20522;-74
2022/05/02 02:14:29;;;;;;;20.10;12.20;;;8.80;99.90;;;;;;5016985;28;20199;-74
2022/05/02 02:16:56;;;;;;;19.67;11.97;;;8.80;99.90;;;;;;5016998;28;20295;-74
2022/05/02 02:19:23;;;;;;;19.63;12.37;;;8.80;99.90;;;;;;5034672;28;20193;-73
2022/05/02 02:21:50;;;;;;;20.53;12.63;;;8.80;99.90;;;;;;5016994;28;20226;-74
2022/05/02 02:24:17;;;;;;;20.33;12.20;;;8.80;99.90;;;;;;5016943;28;20312;-74
2022/05/02 02:26:45;;;;;;;21.13;12.10;;;8.90;99.90;;;;;;5016822;28;20286;-73
2022/05/02 02:29:12;;;;;;;21.00;12.17;;;8.90;99.90;;;;;;5016954;28;20560;-72
2022/05/02 02:31:39;;;;;;;20.07;11.97;;;8.80;99.90;;;;;;5016779;28;20201;-73
2022/05/02 02:34:05;;;;;;;20.47;12.57;;;8.80;99.90;;;;;;5034378;28;20183;-74
2022/05/02 02:36:32;;;;;;;20.43;11.93;;;8.70;99.90;;;;;;5016590;28;20246;-74
2022/05/02 02:38:59;;;;;;;21.20;12.13;;;8.70;99.90;;;;;;5016683;28;20209;-74
2022/05/02 02:41:26;;;;;;;19.10;12.30;;;8.70;99.90;;;;;;5016450;28;20616;-74
2022/05/02 02:43:54;;;;;;;20.53;12.47;;;8.70;99.90;;;;;;5016455;28;20645;-75
2022/05/02 02:46:21;;;;;;;21.17;12.00;;;8.70;99.90;;;;;;5016143;28;20245;-73
2022/05/02 02:48:48;;;;;;;21.80;12.97;;;8.60;99.90;;;;;;5016563;28;20663;-73
2022/05/02 02:51:14;;;;;;;20.13;11.70;;;8.60;99.90;;;;;;5016271;28;20668;-74
2022/05/02 02:53:41;;;;;;;19.27;11.77;;;8.50;99.90;;;;;;5016427;28;20547;-73
2022/05/02 02:56:08;;;;;;;21.83;12.37;;;8.50;99.90;;;;;;5015744;28;20206;-73
2022/05/02 02:58:35;;;;;;;18.67;11.33;;;8.50;99.90;;;;;;5033911;28;20191;-75
2022/05/02 03:01:02;;;;;;;18.07;11.40;;;8.50;99.90;;;;;;5015878;28;20292;-75
2022/05/02 03:03:29;;;;;;;19.77;12.07;;;8.50;99.90;;;;;;5015841;28;20227;-73
2022/05/02 03:06:02;;;;;;;22.13;11.90;;;8.40;99.90;;;;;;5015717;28;20222;-73
2022/05/02 03:08:35;;;;;;;19.13;12.00;;;8.40;99.90;;;;;;5016219;28;20249;-73
2022/05/02 03:11:02;;;;;;;17.47;12.00;;;8.40;99.90;;;;;;5034136;28;20594;-70
2022/05/02 03:13:29;;;;;;;19.07;11.60;;;8.40;99.90;;;;;;5015757;28;20209;-73
2022/05/02 03:15:56;;;;;;;21.63;11.73;;;8.40;99.90;;;;;;5015717;28;20290;-73
2022/05/02 03:18:23;;;;;;;19.83;11.73;;;8.30;99.90;;;;;;5016016;28;20207;-74
2022/05/02 03:20:50;;;;;;;19.87;11.90;;;8.30;99.90;;;;;;5033508;28;20290;-75
2022/05/02 03:23:18;;;;;;;20.23;11.37;;;8.30;99.90;;;;;;5015862;28;20225;-74
2022/05/02 03:25:45;;;;;;;19.67;11.77;;;8.20;99.90;;;;;;5015781;28;20683;-73
2022/05/02 03:28:12;;;;;;;20.13;10.97;;;8.30;99.90;;;;;;5015544;28;20638;-72
2022/05/02 03:30:39;;;;;;;20.70;11.47;;;8.30;99.90;;;;;;5015716;28;20289;-74
2022/05/02 03:33:06;;;;;;;21.43;11.43;;;8.30;99.90;;;;;;5015954;28;20295;-74
2022/05/02 03:35:33;;;;;;;19.63;11.80;;;8.30;99.90;;;;;;5015619;28;20195;-73
2022/05/02 03:38:00;;;;;;;19.63;11.43;;;8.40;99.90;;;;;;5015667;28;20538;-73
2022/05/02 03:40:27;;;;;;;19.50;11.20;;;8.40;99.90;;;;;;5015760;28;20203;-74
2022/05/02 03:42:54;;;;;;;19.37;11.97;;;8.60;99.90;;;;;;5015853;28;20654;-74
2022/05/02 03:45:21;;;;;;;17.73;11.53;;;8.50;99.90;;;;;;5015656;28;20361;-74
2022/05/02 03:47:47;;;;;;;21.03;11.97;;;8.40;99.90;;;;;;5015480;28;20195;-74
2022/05/02 03:50:14;;;;;;;18.07;11.70;;;8.50;99.90;;;;;;5015954;28;20657;-74
2022/05/02 03:52:42;;;;;;;19.80;11.90;;;8.50;99.90;;;;;;5015658;28;20286;-74
2022/05/02 03:55:09;;;;;;;17.57;11.70;;;8.50;99.90;;;;;;5033031;28;20676;-73
2022/05/02 03:57:36;;;;;;;19.43;12.37;;;8.50;99.90;;;;;;5033382;28;20218;-73
2022/05/02 04:00:03;;;;;;;21.43;12.83;;;8.60;99.90;;;;;;5015377;28;20199;-73
2022/05/02 04:02:30;;;;;;;22.63;12.90;;;8.60;99.90;;;;;;5015293;28;20320;-74
2022/05/02 04:04:57;;;;;;;23.97;12.70;;;8.60;99.90;;;;;;5015425;28;20240;-73
2022/05/02 04:07:24;;;;;;;21.10;12.80;;;8.60;99.90;;;;;;5016212;28;20253;-72
2022/05/02 04:09:51;;;;;;;20.93;12.90;;;8.50;99.90;;;;;;5019411;28;20261;-73
2022/05/02 04:12:18;;;;;;;21.90;13.30;;;8.50;99.90;;;;;;5019222;28;20689;-76
2022/05/02 04:14:45;;;;;;;22.87;12.57;;;8.50;99.90;;;;;;5019364;28;20301;-76
2022/05/02 04:17:12;;;;;;;17.80;11.90;;;8.40;99.90;;;;;;5019338;28;20237;-76
2022/05/02 04:19:39;;;;;;;20.27;12.73;;;8.50;99.90;;;;;;5037061;28;20195;-76
2022/05/02 04:22:06;;;;;;;24.00;12.80;;;8.60;99.90;;;;;;5036917;28;20201;-76
2022/05/02 04:24:33;;;;;;;22.67;12.67;;;8.70;99.90;;;;;;5018990;28;20591;-76
2022/05/02 04:27:00;;;;;;;23.53;12.57;;;8.80;99.90;;;;;;5018914;28;20209;-75
2022/05/02 04:29:27;;;;;;;23.87;12.87;;;8.80;99.90;;;;;;5019561;28;20627;-76
2022/05/02 04:31:54;;;;;;;27.33;13.63;;;8.90;99.90;;;;;;5019471;28;20559;-76
2022/05/02 04:34:21;;;;;;;19.40;13.03;;;8.90;99.90;;;;;;5018848;28;20246;-76
2022/05/02 04:36:48;;;;;;;23.17;13.83;;;9.00;99.90;;;;;;5018943;28;20223;-75
2022/05/02 04:39:15;;;;;;;23.67;13.37;;;9.10;99.90;;;;;;5035355;28;20671;-75
2022/05/02 04:41:41;;;;;;;21.40;13.30;;;9.10;99.90;;;;;;5019121;28;20279;-75
2022/05/02 04:44:08;;;;;;;21.97;13.93;;;9.20;99.90;;;;;;5018783;28;20707;-76
2022/05/02 04:46:35;;;;;;;21.97;14.17;;;9.20;99.90;;;;;;5019002;28;20250;-75
2022/05/02 04:49:02;;;;;;;23.57;13.57;;;9.20;99.90;;;;;;5018765;28;20195;-75
2022/05/02 04:51:29;;;;;;;22.40;13.83;;;9.20;99.90;;;;;;5018771;28;20290;-74
2022/05/02 04:53:56;;;;;;;21.33;13.53;;;9.30;99.90;;;;;;5018676;28;20227;-74
2022/05/02 04:56:23;;;;;;;21.30;13.47;;;9.40;99.90;;;;;;5018124;28;20298;-75
2022/05/02 04:58:50;;;;;;;23.43;13.80;;;9.50;99.90;;;;;;5018396;28;20290;-75
2022/05/02 05:01:17;;;;;;;24.57;12.87;;;9.60;99.90;;;;;;5018223;28;20322;-76
2022/05/02 05:03:44;;;;;;;21.93;13.17;;;9.70;99.90;;;;;;5018108;28;20219;-76
2022/05/02 05:06:11;;;;;;;19.33;11.77;;;9.70;99.90;;;;;;5035959;28;20202;-77
2022/05/02 05:08:39;;;;;;;19.53;11.87;;;9.70;99.90;;;;;;5035769;28;20203;-77
2022/05/02 05:11:24;;;;;;;20.10;11.90;;;9.90;99.90;;;;;;5018067;28;20581;-75
2022/05/02 05:17:01;;;;;;;22.40;11.17;;;10.00;99.90;;;;;;5018384;28;20665;-75
2022/05/02 05:19:31;;;;;;;23.43;11.30;;;10.10;99.90;;;;;;5017800;28;20291;-77
2022/05/02 05:22:11;;;;;;;25.27;11.23;;;10.30;99.90;;;;;;5035983;28;20291;-76
2022/05/02 05:24:51;;;;;;;24.87;11.80;;;10.30;99.90;;;;;;5017771;28;20231;-79
2022/05/02 05:27:20;;;;;;;22.60;12.20;;;10.40;99.90;;;;;;5035540;28;20274;-77
2022/05/02 05:30:08;;;;;;;18.13;11.33;;;10.40;99.90;;;;;;5036270;28;20199;-78
2022/05/02 05:33:03;;;;;;;21.60;11.93;;;10.50;99.90;;;;;;5017927;28;20302;-79
2022/05/02 05:35:44;;;;;;;17.53;11.20;;;10.70;99.90;;;;;;5017518;28;20231;-76
2022/05/02 05:38:35;;;;;;;28.93;12.30;;;10.80;99.90;;;;;;5035588;28;20202;-77
2022/05/02 05:41:23;;;;;;;25.07;10.83;;;10.80;99.90;;;;;;5017485;28;20207;-77
2022/05/02 05:44:14;;;;;;;16.97;10.80;;;11.00;99.90;;;;;;5035612;28;20306;-80
2022/05/02 05:47:00;;;;;;;22.17;11.57;;;11.10;99.90;;;;;;5035095;28;20288;-80
2022/05/02 05:50:03;;;;;;;20.10;11.03;;;11.20;99.90;;;;;;5017856;28;20223;-78
2022/05/02 05:52:49;;;;;;;17.17;10.77;;;11.30;99.90;;;;;;4958102;28;20225;-79
2022/05/02 05:55:26;;;;;;;17.20;11.17;;;11.50;99.90;;;;;;4974387;28;20238;-80
2022/05/02 05:58:34;;;;;;;17.10;10.50;;;11.60;99.90;;;;;;4957858;28;20217;-79
2022/05/02 06:01:11;;;;;;;17.83;10.10;;;11.70;99.90;;;;;;4955654;28;20304;-78
2022/05/02 06:04:01;;;;;;;19.27;9.97;;;11.70;99.90;;;;;;4919338;29;20209;-79
2022/05/02 06:06:29;;;;;;;15.57;9.53;;;11.80;99.90;;;;;;4938954;29;20647;-83
2022/05/02 06:09:00;;;;;;;13.13;8.73;;;11.90;99.90;;;;;;4954774;29;20288;-82
2022/05/02 06:11:28;;;;;;;17.13;9.27;;;12.00;99.90;;;;;;4938328;29;20257;-82
2022/05/02 06:13:58;;;;;;;14.00;8.17;;;12.10;99.90;;;;;;4938480;29;20214;-83
2022/05/02 06:19:25;;;;;;;13.83;8.37;;;12.30;99.90;;;;;;4938434;29;20198;-79
2022/05/02 06:21:54;;;;;;;12.70;8.03;;;12.40;99.90;;;;;;4938343;29;20202;-78
2022/05/02 06:24:26;;;;;;;14.43;8.10;;;12.50;99.90;;;;;;4954195;29;20218;-77
2022/05/02 06:26:55;;;;;;;13.37;7.90;;;12.60;99.90;;;;;;4938193;29;20287;-79
2022/05/02 06:29:23;;;;;;;25.53;9.07;;;12.60;99.90;;;;;;4968196;28;20238;-77
2022/05/02 06:31:54;;;;;;;14.13;8.23;;;12.70;99.90;;;;;;4996569;28;20208;-79
2022/05/02 06:34:29;;;;;;;12.37;7.90;;;12.70;99.90;;;;;;4997129;28;20259;-78
2022/05/02 06:37:11;;;;;;;16.63;7.73;;;12.90;99.90;;;;;;5014648;28;20192;-75
2022/05/02 06:39:54;;;;;;;13.00;7.83;;;13.10;99.90;;;;;;5013004;28;20227;-76
2022/05/02 06:42:24;;;;;;;13.57;7.80;;;13.10;99.90;;;;;;5014807;28;20295;-72
2022/05/02 06:45:04;;;;;;;14.90;8.00;;;13.30;99.90;;;;;;4996628;28;20233;-75
2022/05/02 06:47:49;;;;;;;14.87;8.03;;;13.40;99.90;;;;;;4996819;28;20290;-76
2022/05/02 06:50:24;;;;;;;14.60;7.97;;;13.50;99.90;;;;;;4996986;28;20200;-72
2022/05/02 06:53:28;;;;;;;15.07;8.30;;;13.60;99.90;;;;;;4996760;28;20231;-76
2022/05/02 06:56:01;;;;;;;14.10;7.93;;;13.80;99.90;;;;;;5013063;28;20295;-78
2022/05/02 06:58:28;;;;;;;11.80;7.27;;;13.80;99.90;;;;;;4996385;28;20223;-76
2022/05/02 07:01:09;;;;;;;15.23;7.63;;;13.90;99.90;;;;;;4996641;28;20228;-75
2022/05/02 07:03:59;;;;;;;15.83;7.47;;;14.00;99.90;;;;;;5033699;28;20667;-79
2022/05/02 07:06:45;;;;;;;14.03;7.17;;;14.10;99.90;;;;;;5016421;28;20201;-78
2022/05/02 07:09:27;;;;;;;20.17;8.20;;;14.30;99.90;;;;;;5001667;28;20242;-78
2022/05/02 07:12:22;;;;;;;10.57;7.03;;;14.40;99.90;;;;;;5015915;28;20202;-78
2022/05/02 07:15:04;;;;;;;13.33;6.50;;;14.60;99.90;;;;;;5016325;28;20257;-78
2022/05/02 07:17:43;;;;;;;15.03;7.10;;;14.70;99.90;;;;;;5015974;28;20283;-77
2022/05/02 07:20:42;;;;;;;13.60;6.47;;;14.70;99.90;;;;;;5015991;28;20199;-75
2022/05/02 07:23:36;;;;;;;10.73;6.27;;;14.70;99.90;;;;;;5016098;28;20286;-78
2022/05/02 07:26:07;;;;;;;10.57;6.10;;;14.60;99.90;;;;;;5017816;28;20262;-80
2022/05/02 07:28:44;;;;;;;11.43;6.33;;;14.70;99.90;;;;;;5015920;28;20207;-77
2022/05/02 07:31:20;;;;;;;14.57;6.57;;;14.80;99.90;;;;;;5016013;28;20226;-76
2022/05/02 07:33:50;;;;;;;10.20;6.53;;;15.00;99.90;;;;;;5015568;28;20191;-77
2022/05/02 07:36:19;;;;;;;9.00;5.87;;;15.20;99.90;;;;;;5015408;28;20195;-78
2022/05/02 07:38:50;;;;;;;13.43;5.97;;;15.30;99.90;;;;;;5015685;28;20628;-77
2022/05/02 07:41:23;;;;;;;11.13;6.10;;;15.40;99.90;;;;;;5015694;28;20233;-76
2022/05/02 07:43:57;;;;;;;9.67;6.30;;;15.50;99.90;;;;;;5015633;28;20723;-76
2022/05/02 07:46:27;;;;;;;7.70;5.90;;;15.60;99.90;;;;;;5015420;28;20254;-77
2022/05/02 07:48:56;;;;;;;9.40;5.70;;;15.70;99.90;;;;;;5015233;28;20303;-79
2022/05/02 07:51:24;;;;;;;9.40;6.00;;;15.40;99.90;;;;;;5015644;28;20648;-81
2022/05/02 07:53:52;;;;;;;12.00;5.70;;;15.50;99.90;;;;;;5015555;28;20203;-79
2022/05/02 07:56:26;;;;;;;10.47;5.83;;;15.70;99.90;;;;;;5015493;28;20207;-80
2022/05/02 07:58:54;;;;;;;10.53;5.50;;;15.90;99.90;;;;;;5015380;28;20543;-81
2022/05/02 08:01:23;;;;;;;12.13;5.83;;;16.10;99.90;;;;;;5032838;28;20231;-80
2022/05/02 08:03:51;;;;;;;10.97;5.50;;;16.30;99.90;;;;;;5015444;28;20536;-79
2022/05/02 08:06:45;;;;;;;10.57;5.53;;;16.40;99.90;;;;;;5015285;28;20273;-76
2022/05/02 08:09:37;;;;;;;9.80;5.70;;;17.10;99.90;;;;;;5015373;28;20195;-79
2022/05/02 08:12:22;;;;;;;8.67;4.97;;;18.40;99.20;;;;;;5015360;28;20269;-78
2022/05/02 08:15:19;;;;;;;10.60;5.77;;;19.80;94.40;;;;;;5033209;28;20282;-79
2022/05/02 08:18:07;;;;;;;8.23;4.97;;;20.80;87.60;;;;;;5015121;28;20249;-80
2022/05/02 08:20:59;;;;;;;8.20;5.37;;;21.60;83.00;;;;;;5033085;28;20271;-80
2022/05/02 08:27:16;;;;;;;9.15;5.40;;;22.70;69.80;;;;;;5019829;28;20283;-76
2022/05/02 08:29:48;;;;;;;10.20;5.60;;;22.90;64.30;;;;;;4971921;28;20240;-75
2022/05/02 08:32:42;;;;;;;17.60;7.07;;;23.10;62.10;;;;;;4971856;28;20205;-76
2022/05/02 08:35:33;;;;;;;9.25;6.03;;;23.30;59.70;;;;;;4955741;28;20297;-78
2022/05/02 08:38:36;;;;;;;9.75;6.03;;;23.80;59.50;;;;;;4972206;28;20229;-78
2022/05/02 08:41:28;;;;;;;10.35;5.57;;;23.90;57.90;;;;;;4971872;28;20273;-79
2022/05/02 08:44:07;;;;;;;8.82;5.50;;;24.30;58.00;;;;;;4971992;28;20256;-80
2022/05/02 08:46:52;;;;;;;11.32;5.90;;;24.70;57.30;;;;;;4955588;28;20225;-80
2022/05/02 08:49:38;;;;;;;9.50;5.78;;;24.80;56.10;;;;;;4955634;28;20209;-80
2022/05/02 08:52:26;;;;;;;9.90;5.45;;;24.40;52.70;;;;;;4956757;28;20289;-83
2022/05/02 08:55:31;;;;;;;9.43;5.65;;;23.70;53.00;;;;;;4958456;28;20630;-69
2022/05/02 08:58:19;;;;;;;9.93;5.45;;;23.70;54.40;;;;;;4959072;28;20292;-81
2022/05/02 09:01:21;;;;;;;9.90;5.45;;;23.90;55.30;;;;;;4959344;28;20669;-77
2022/05/02 09:04:09;;;;;;;9.38;5.38;;;24.00;54.90;;;;;;4959022;28;20193;-76
2022/05/02 09:07:03;;;;;;;8.38;5.18;;;24.10;54.70;;;;;;4988316;28;20755;-76
2022/05/02 09:10:01;;;;;;;7.70;5.13;;;24.30;54.40;;;;;;5018760;28;20641;-76
2022/05/02 09:13:02;;;;;;;8.82;4.70;;;24.50;53.80;;;;;;5018232;28;20637;-77
2022/05/02 09:15:41;;;;;;;9.00;4.40;;;23.50;51.30;;;;;;5035580;28;20191;-77
2022/05/02 09:18:20;;;;;;;6.65;4.60;;;23.80;51.00;;;;;;5018180;28;20199;-76
2022/05/02 09:21:40;;;;;;;8.65;4.90;;;23.70;50.70;;;;;;5035794;28;20621;-76
2022/05/02 09:24:21;;;;;;;6.63;4.38;;;23.70;51.80;;;;;;5017928;28;20203;-76
2022/05/02 09:27:28;;;;;;;8.75;5.05;;;24.00;52.60;;;;;;5017704;28;20234;-76
2022/05/02 09:30:03;;;;;;;8.67;4.90;;;23.50;50.10;;;;;;5018095;28;20294;-75
2022/05/02 09:32:48;;;;;;;7.43;4.90;;;23.20;52.10;;;;;;5001860;28;20626;-78
2022/05/02 09:35:22;;;;;;;8.53;5.10;;;23.00;50.50;;;;;;5017734;28;20594;-75
2022/05/02 09:37:57;;;;;;;14.40;5.38;;;22.80;50.90;;;;;;5035222;28;20195;-77
2022/05/02 09:40:36;;;;;;;11.05;5.80;;;23.10;51.30;;;;;;5018001;28;20199;-78
2022/05/02 09:49:33;;;;;;;12.07;5.47;;;23.30;50.50;;;;;;5029214;28;20631;-77
2022/05/02 09:49:49;;;;;;;8.10;4.90;;;23.00;51.10;;;;;;5037036;28;20198;-77
2022/05/02 09:52:28;;;;;;;11.50;5.70;;;22.70;49.80;;;;;;5036239;28;20187;-75
2022/05/02 09:58:31;;;;;;;6.88;4.65;;;24.10;49.60;;;;;;5017361;28;20310;-77
2022/05/02 10:01:34;;;;;;;7.93;4.60;;;24.30;49.00;;;;;;5017183;28;20191;-74
2022/05/02 10:04:32;;;;;;;8.10;4.60;;;25.00;50.00;;;;;;4958177;28;20201;-77
2022/05/02 10:07:10;;;;;;;6.97;4.78;;;25.30;46.40;;;;;;4957174;28;20308;-76
2022/05/02 10:09:51;;;;;;;7.53;4.88;;;25.30;46.90;;;;;;4957607;28;20213;-75
2022/05/02 10:12:40;;;;;;;11.07;6.22;;;25.50;47.60;;;;;;4957597;28;20344;-77
2022/05/02 10:15:44;;;;;;;8.85;4.40;;;26.10;46.50;;;;;;4973457;28;20233;-77
2022/05/02 10:18:11;;;;;;;6.18;4.07;;;26.40;44.60;;;;;;4973757;28;20217;-75
2022/05/02 10:21:25;;;;;;;7.75;4.40;;;25.90;45.60;;;;;;4959739;28;20292;-76
2022/05/02 10:24:09;;;;;;;6.82;4.60;;;26.50;45.80;;;;;;4919437;29;20214;-74
2022/05/02 10:26:39;;;;;;;7.13;4.60;;;26.80;44.40;;;;;;4919017;29;20322;-74
2022/05/02 10:29:17;;;;;;;6.72;3.95;;;27.10;45.20;;;;;;4934891;29;20191;-73
2022/05/02 10:32:01;;;;;;;8.57;4.50;;;27.00;43.30;;;;;;4934820;29;20205;-74
2022/05/02 10:34:30;;;;;;;7.82;4.40;;;25.90;42.60;;;;;;4918886;29;20257;-74
2022/05/02 10:37:03;;;;;;;5.90;4.10;;;26.00;41.70;;;;;;4935618;29;20198;-74
2022/05/02 10:39:45;;;;;;;5.43;3.95;;;25.90;40.80;;;;;;4938301;29;20217;-74
2022/05/02 10:42:16;;;;;;;7.03;3.58;;;25.50;42.20;;;;;;4937933;29;20294;-75
2022/05/02 10:44:54;;;;;;;6.97;3.70;;;25.30;42.20;;;;;;4953975;28;20242;-73
2022/05/02 10:47:26;;;;;;;6.43;4.40;;;25.70;42.60;;;;;;4937690;28;20205;-75
2022/05/02 10:50:11;;;;;;;10.77;4.75;;;25.90;42.80;;;;;;4937865;29;20761;-75
2022/05/02 10:52:46;;;;;;;5.88;3.97;;;25.90;41.50;;;;;;4937691;29;20246;-75
2022/05/02 10:55:22;;;;;;;8.57;4.18;;;26.50;42.00;;;;;;4953552;29;20656;-73
2022/05/02 10:58:00;;;;;;;9.18;4.10;;;27.10;40.10;;;;;;4937396;28;20263;-74
2022/05/02 11:00:28;;;;;;;8.68;4.07;;;26.80;41.20;;;;;;5006464;28;20274;-75
2022/05/02 11:02:58;;;;;;;5.70;3.88;;;26.80;40.10;;;;;;5031549;28;20289;-73
2022/05/02 11:05:27;;;;;;;8.68;4.38;;;27.40;39.10;;;;;;5032354;28;20626;-74
2022/05/02 11:08:11;;;;;;;4.85;3.90;;;27.90;39.30;;;;;;5016215;28;20196;-74
2022/05/02 11:10:46;;;;;;;8.38;4.40;;;27.20;38.40;;;;;;5033465;28;20229;-76
2022/05/02 11:13:20;;;;;;;6.68;4.13;;;27.10;39.40;;;;;;5036173;28;20230;-75
2022/05/02 11:16:08;;;;;;;7.25;4.47;;;27.30;39.90;;;;;;5035373;28;20236;-75
2022/05/02 11:22:28;;;;;;;9.40;4.55;;;27.80;41.90;;;;;;5015582;28;20234;-76
2022/05/02 11:25:10;;;;;;;8.13;4.07;;;28.20;38.90;;;;;;5015590;28;20246;-75
2022/05/02 11:28:19;;;;;;;8.73;4.30;;;28.50;37.00;;;;;;5015601;28;20195;-75
2022/05/02 11:31:21;;;;;;;5.80;3.50;;;28.40;38.00;;;;;;5033485;28;20286;-73
2022/05/02 11:34:11;;;;;;;6.38;4.03;;;28.60;36.90;;;;;;4975445;28;20255;-76
2022/05/02 11:36:44;;;;;;;8.43;4.75;;;29.00;36.90;;;;;;4975471;28;20204;-75
2022/05/02 11:39:20;;;;;;;8.10;4.60;;;28.70;36.70;;;;;;4975523;28;20205;-73
2022/05/02 11:41:50;;;;;;;7.78;4.60;;;29.20;37.40;;;;;;4991730;28;20283;-75
2022/05/02 11:44:17;;;;;;;6.35;4.93;;;28.70;35.70;;;;;;4975365;28;20296;-75
2022/05/02 11:47:05;;;;;;;6.18;4.50;;;28.30;35.20;;;;;;4991627;28;20309;-76
2022/05/02 11:49:43;;;;;;;6.95;4.45;;;26.70;37.10;;;;;;4975564;28;20289;-75
2022/05/02 11:52:14;;;;;;;8.00;4.43;;;26.60;37.90;;;;;;4975471;28;20304;-75
2022/05/02 11:54:42;;;;;;;7.43;4.10;;;26.50;39.50;;;;;;4991548;28;20232;-75
2022/05/02 11:57:19;;;;;;;7.43;4.20;;;26.60;38.80;;;;;;4991382;28;20224;-75
2022/05/02 12:00:03;;;;;;;7.40;3.97;;;26.60;38.40;;;;;;4975411;28;20287;-77
2022/05/02 12:02:43;;;;;;;7.38;4.25;;;26.70;38.10;;;;;;4991597;28;20275;-76
2022/05/02 12:05:23;;;;;;;7.47;4.10;;;27.00;37.80;;;;;;4991236;28;20307;-76
2022/05/02 12:07:51;;;;;;;5.22;4.00;;;27.40;37.90;;;;;;4975334;28;20289;-77
2022/05/02 12:10:30;;;;;;;6.32;3.88;;;27.90;36.00;;;;;;5012393;28;20199;-77
2022/05/02 12:12:57;;;;;;;7.20;5.10;;;27.10;37.90;;;;;;5015568;28;20203;-74
2022/05/02 12:15:25;;;;;;;6.78;4.30;;;26.50;40.70;;;;;;5015436;28;20253;-77
2022/05/02 12:18:06;;;;;;;7.53;4.25;;;27.10;42.20;;;;;;5015178;28;20257;-75
2022/05/02 12:20:39;;;;;;;8.38;4.38;;;27.40;41.30;;;;;;5008148;28;20211;-76
2022/05/02 12:23:16;;;;;;;5.18;3.80;;;28.10;41.40;;;;;;5015530;28;20196;-76
2022/05/02 12:25:51;;;;;;;6.95;4.40;;;28.90;40.90;;;;;;5015104;28;20219;-75
2022/05/02 12:28:37;;;;;;;7.18;4.20;;;27.70;39.80;;;;;;5052956;28;20521;-75
2022/05/02 12:31:07;;;;;;;7.13;4.60;;;28.30;40.90;;;;;;5039042;28;20199;-80
2022/05/02 12:33:39;;;;;;;4.82;3.78;;;28.70;39.10;;;;;;5038822;28;20203;-79
2022/05/02 12:36:14;;;;;;;5.55;3.78;;;29.30;40.00;;;;;;5038730;28;20199;-75
2022/05/02 12:38:47;;;;;;;9.00;4.15;;;30.00;37.90;;;;;;5038627;28;20285;-79
2022/05/02 12:41:23;;;;;;;5.78;4.20;;;30.20;38.20;;;;;;5039099;28;20198;-77
2022/05/02 12:43:54;;;;;;;6.65;4.22;;;29.40;37.90;;;;;;5038567;28;20190;-78
2022/05/02 12:46:32;;;;;;;6.68;4.10;;;29.40;36.80;;;;;;5038302;28;20226;-78
2022/05/02 12:49:04;;;;;;;6.47;4.53;;;29.70;37.80;;;;;;5038596;28;20603;-78
2022/05/02 12:51:32;;;;;;;8.13;4.18;;;28.70;37.70;;;;;;5038686;28;20554;-79
2022/05/02 12:54:21;;;;;;;5.53;4.40;;;28.90;38.60;;;;;;5038693;28;20286;-78
2022/05/02 13:02:44;;;;;;;9.32;3.90;;;27.90;38.70;;;;;;5038116;28;20254;-79
2022/05/02 13:05:21;;;;;;;6.20;3.80;;;29.10;39.00;;;;;;5037906;28;20199;-69
2022/05/02 13:07:50;;;;;;;5.50;4.00;;;30.10;38.40;;;;;;5038438;28;20623;-72
2022/05/02 13:10:26;;;;;;;5.25;4.05;;;29.80;36.60;;;;;;5037991;28;20199;-71
2022/05/02 13:13:09;;;;;;;4.38;3.83;;;28.40;37.30;;;;;;5038057;28;20233;-72
2022/05/02 13:15:40;;;;;;;6.68;4.03;;;27.50;39.60;;;;;;5037790;28;20195;-75
2022/05/02 13:18:15;;;;;;;6.32;4.30;;;27.40;39.60;;;;;;5038042;28;20230;-69
2022/05/02 13:20:57;;;;;;;6.70;4.30;;;26.60;41.00;;;;;;5037986;28;20628;-70
2022/05/02 13:23:36;;;;;;;6.10;4.20;;;27.10;41.20;;;;;;5038435;28;20357;-69
2022/05/02 13:26:12;;;;;;;6.40;4.15;;;28.10;40.90;;;;;;5021300;28;20227;-69
2022/05/02 13:28:55;;;;;;;6.95;4.20;;;29.10;39.70;;;;;;5038124;28;20194;-69
2022/05/02 13:31:45;;;;;;;6.30;4.10;;;29.10;37.60;;;;;;5037981;28;20198;-72
2022/05/02 13:34:19;;;;;;;5.60;3.60;;;29.60;37.00;;;;;;5028355;28;20303;-70
2022/05/02 13:36:50;;;;;;;6.15;4.00;;;29.40;36.80;;;;;;5021533;28;20293;-71
2022/05/02 13:39:22;;;;;;;6.63;3.83;;;28.70;37.70;;;;;;5037374;28;20195;-74
2022/05/02 13:42:01;;;;;;;6.38;3.70;;;28.50;37.80;;;;;;5037372;28;20198;-73
2022/05/02 13:44:47;;;;;;;6.32;3.90;;;28.10;38.30;;;;;;5055416;28;20199;-72
2022/05/02 13:47:20;;;;;;;8.30;3.55;;;28.30;38.40;;;;;;5037503;28;20314;-71
2022/05/02 13:50:14;;;;;;;8.05;3.80;;;27.80;37.70;;;;;;5037294;28;20226;-69